Time;durP1;ratioP1;P1;durP2;ratioP2;P2;SDS_P1;SDS_P2;PMS_P1;PMS_P2;Temp;Humidity;BMP_temperature;BMP_pressure;BME280_temperature;BME280_humidity;BME280_pressure;Samples;Min_cycle;Max_cycle;Signal;HPM_P1;HPM_P2
2021/04/11 00:00:09;;;;;;;1.77;1.23;;;;;;;;;;6160827;23;20323;-79
2021/04/11 00:02:35;;;;;;;1.40;0.73;;;;;;;;;;6162136;23;20013;-79
2021/04/11 00:05:01;;;;;;;3.43;0.87;;;;;;;;;;6162506;23;20044;-78
2021/04/11 00:07:27;;;;;;;2.37;0.90;;;;;;;;;;6168089;23;20005;-78
2021/04/11 00:09:53;;;;;;;2.97;0.80;;;;;;;;;;6164289;23;20387;-80
2021/04/11 00:12:19;;;;;;;2.00;0.80;;;;;;;;;;6188192;23;20016;-78
2021/04/11 00:14:45;;;;;;;0.57;0.50;;;;;;;;;;6163192;23;20031;-79
2021/04/11 00:17:11;;;;;;;3.07;1.10;;;;;;;;;;6159295;23;20502;-80
2021/04/11 00:19:37;;;;;;;1.13;0.83;;;;;;;;;;6160535;23;20053;-78
2021/04/11 00:22:03;;;;;;;2.50;0.70;;;;;;;;;;6155608;23;20014;-78
2021/04/11 00:24:29;;;;;;;1.80;0.73;;;;;;;;;;6161601;23;20009;-79
2021/04/11 00:26:55;;;;;;;2.80;1.00;;;;;;;;;;6157537;23;20435;-78
2021/04/11 00:29:21;;;;;;;4.03;0.60;;;;;;;;;;6187737;23;20001;-78
2021/04/11 00:31:47;;;;;;;6.93;1.10;;;;;;;;;;6189611;23;20032;-79
2021/04/11 00:34:13;;;;;;;2.87;0.70;;;;;;;;;;6188078;23;20021;-79
2021/04/11 00:36:39;;;;;;;5.50;1.63;;;;;;;;;;6189040;23;20005;-79
2021/04/11 00:39:05;;;;;;;1.67;0.60;;;;;;;;;;6186673;23;20130;-79
2021/04/11 00:41:58;;;;;;;3.23;0.77;;;;;;;;;;6187396;23;20457;-78
2021/04/11 00:44:24;;;;;;;3.33;0.77;;;;;;;;;;6193353;23;20005;-78
2021/04/11 00:46:54;;;;;;;3.20;0.97;;;;;;;;;;6187538;23;20005;-79
2021/04/11 00:49:31;;;;;;;5.60;0.70;;;;;;;;;;6184681;23;20076;-78
2021/04/11 00:51:57;;;;;;;3.37;1.00;;;;;;;;;;6185519;23;20009;-78
2021/04/11 00:54:23;;;;;;;2.43;0.80;;;;;;;;;;6186662;23;20331;-79
2021/04/11 00:56:49;;;;;;;2.13;0.53;;;;;;;;;;6186092;23;20013;-78
2021/04/11 00:59:16;;;;;;;5.60;2.83;;;;;;;;;;6185962;23;20009;-78
2021/04/11 01:01:42;;;;;;;3.83;1.00;;;;;;;;;;6186541;23;20014;-79
2021/04/11 01:04:10;;;;;;;3.37;1.20;;;;;;;;;;6187088;23;20013;-78
2021/04/11 01:06:41;;;;;;;4.57;1.27;;;;;;;;;;6187440;23;20006;-78
2021/04/11 01:09:10;;;;;;;8.17;3.07;;;;;;;;;;6188311;23;20035;-79
2021/04/11 01:11:36;;;;;;;3.90;1.10;;;;;;;;;;6191287;23;20008;-78
2021/04/11 01:14:05;;;;;;;4.40;1.03;;;;;;;;;;6190542;23;20033;-78
2021/04/11 01:16:32;;;;;;;3.87;1.10;;;;;;;;;;6188536;23;20005;-78
2021/04/11 01:18:58;;;;;;;3.40;1.00;;;;;;;;;;6189597;23;20096;-79
2021/04/11 01:21:24;;;;;;;2.00;0.80;;;;;;;;;;6194186;23;20001;-78
2021/04/11 01:23:53;;;;;;;2.00;0.97;;;;;;;;;;6192186;23;20449;-79
2021/04/11 01:26:20;;;;;;;2.97;1.00;;;;;;;;;;6189072;23;20091;-79
2021/04/11 01:28:47;;;;;;;4.63;1.13;;;;;;;;;;6185042;23;20031;-78
2021/04/11 01:31:14;;;;;;;4.60;1.30;;;;;;;;;;6192310;22;20027;-79
2021/04/11 01:33:44;;;;;;;4.07;1.00;;;;;;;;;;6231741;22;20321;-78
2021/04/11 01:36:11;;;;;;;1.70;0.67;;;;;;;;;;6188898;23;20008;-80
2021/04/11 01:38:39;;;;;;;2.23;0.87;;;;;;;;;;6214197;23;20007;-79
2021/04/11 01:41:08;;;;;;;2.57;0.80;;;;;;;;;;6186970;23;20013;-78
2021/04/11 01:43:35;;;;;;;2.93;1.10;;;;;;;;;;6187173;23;20008;-78
2021/04/11 01:46:02;;;;;;;2.27;0.70;;;;;;;;;;6188939;23;20005;-80
2021/04/11 01:48:28;;;;;;;3.23;0.73;;;;;;;;;;6188345;23;20433;-79
2021/04/11 01:50:55;;;;;;;2.67;0.80;;;;;;;;;;6162597;23;20036;-78
2021/04/11 01:53:21;;;;;;;3.80;1.07;;;;;;;;;;6213998;23;20309;-79
2021/04/11 01:55:47;;;;;;;2.23;1.13;;;;;;;;;;6187834;23;20035;-78
2021/04/11 01:58:14;;;;;;;3.23;0.97;;;;;;;;;;6188054;23;20318;-79
2021/04/11 02:01:09;;;;;;;3.67;1.00;;;;;;;;;;6188466;23;20029;-78
2021/04/11 02:03:35;;;;;;;;;;;;;;;;;;6169666;23;20017;-78
2021/04/11 02:06:06;;;;;;;1.13;0.63;;;;;;;;;;6189741;23;19907;-79
2021/04/11 02:08:34;;;;;;;2.87;0.90;;;;;;;;;;6189208;23;20092;-78
2021/04/11 02:11:03;;;;;;;3.87;1.23;;;;;;;;;;6189841;23;20342;-78
2021/04/11 02:13:30;;;;;;;2.23;0.90;;;;;;;;;;6216072;23;20028;-79
2021/04/11 02:15:59;;;;;;;1.73;0.73;;;;;;;;;;6189031;23;20085;-79
2021/04/11 02:18:26;;;;;;;1.10;0.73;;;;;;;;;;6189066;23;20040;-79
2021/04/11 02:20:53;;;;;;;3.67;0.70;;;;;;;;;;6189131;23;20479;-78
2021/04/11 02:23:19;;;;;;;4.40;1.00;;;;;;;;;;6163835;23;20015;-78
2021/04/11 02:25:47;;;;;;;2.27;0.90;;;;;;;;;;6189005;23;20008;-78
2021/04/11 02:28:15;;;;;;;2.73;1.37;;;;;;;;;;6216951;23;20000;-78
2021/04/11 02:30:47;;;;;;;5.53;1.40;;;;;;;;;;6191169;23;20016;-78
2021/04/11 02:33:13;;;;;;;1.67;0.80;;;;;;;;;;6191617;23;20021;-78
2021/04/11 02:35:40;;;;;;;2.83;1.03;;;;;;;;;;6167373;23;20062;-78
2021/04/11 02:38:07;;;;;;;2.20;0.80;;;;;;;;;;6215855;23;20032;-78
2021/04/11 02:40:34;;;;;;;1.43;1.00;;;;;;;;;;6189164;23;20023;-79
2021/04/11 02:43:01;;;;;;;1.63;0.80;;;;;;;;;;6188650;23;20592;-78
2021/04/11 02:45:35;;;;;;;4.10;1.10;;;;;;;;;;6188563;23;20036;-77
2021/04/11 02:48:01;;;;;;;3.78;0.75;;;;;;;;;;6191722;23;20065;-78
2021/04/11 02:50:29;;;;;;;3.17;0.80;;;;;;;;;;6189001;23;20425;-79
2021/04/11 02:53:01;;;;;;;2.50;0.80;;;;;;;;;;6187305;23;20009;-78
2021/04/11 02:55:29;;;;;;;1.40;0.60;;;;;;;;;;6187747;23;20480;-78
2021/04/11 02:57:56;;;;;;;2.43;0.80;;;;;;;;;;6186437;23;20005;-79
2021/04/11 03:00:23;;;;;;;2.30;0.80;;;;;;;;;;6212244;23;20036;-79
2021/04/11 03:02:50;;;;;;;4.80;1.70;;;;;;;;;;6187641;23;20066;-78
2021/04/11 03:05:17;;;;;;;3.60;1.63;;;;;;;;;;6191002;23;20326;-78
2021/04/11 03:07:45;;;;;;;1.23;0.70;;;;;;;;;;6191421;23;20034;-78
2021/04/11 03:10:32;;;;;;;1.87;0.70;;;;;;;;;;6220709;23;20004;-79
2021/04/11 03:12:59;;;;;;;3.53;1.17;;;;;;;;;;6216440;23;20011;-79
2021/04/11 03:15:26;;;;;;;3.40;2.00;;;;;;;;;;6189315;23;20009;-79
2021/04/11 03:17:53;;;;;;;5.17;1.97;;;;;;;;;;6188821;23;20079;-78
2021/04/11 03:20:21;;;;;;;5.63;1.83;;;;;;;;;;6189169;23;20019;-79
2021/04/11 03:22:51;;;;;;;5.90;1.37;;;;;;;;;;6216467;23;20023;-79
2021/04/11 03:25:18;;;;;;;8.20;1.40;;;;;;;;;;6190120;23;20004;-79
2021/04/11 03:28:05;;;;;;;4.90;2.00;;;;;;;;;;6217186;23;20038;-78
2021/04/11 03:30:49;;;;;;;4.70;1.30;;;;;;;;;;6218129;23;20000;-78
2021/04/11 03:33:17;;;;;;;8.23;1.67;;;;;;;;;;6190168;23;20029;-78
2021/04/11 03:35:44;;;;;;;8.47;1.87;;;;;;;;;;6218913;23;20422;-79
2021/04/11 03:38:12;;;;;;;12.47;1.73;;;;;;;;;;6219019;23;20004;-79
2021/04/11 03:40:39;;;;;;;5.50;1.90;;;;;;;;;;6193302;23;20017;-79
2021/04/11 03:43:13;;;;;;;9.93;2.40;;;;;;;;;;6220691;23;19997;-78
2021/04/11 03:45:40;;;;;;;10.35;2.13;;;;;;;;;;6196300;23;20068;-81
2021/04/11 03:48:12;;;;;;;8.43;1.40;;;;;;;;;;6197447;23;20012;-81
2021/04/11 03:50:42;;;;;;;7.00;1.80;;;;;;;;;;6192782;23;20038;-79
2021/04/11 03:53:20;;;;;;;9.13;2.17;;;;;;;;;;6191818;23;20013;-78
2021/04/11 03:55:47;;;;;;;7.53;1.50;;;;;;;;;;6193092;23;20005;-79
2021/04/11 03:58:25;;;;;;;6.50;1.57;;;;;;;;;;6194763;23;20009;-78
2021/04/11 04:00:57;;;;;;;6.67;1.23;;;;;;;;;;6224089;23;20009;-77
2021/04/11 04:03:24;;;;;;;7.83;1.27;;;;;;;;;;6199880;23;20008;-80
2021/04/11 04:05:52;;;;;;;5.37;1.20;;;;;;;;;;6226889;23;20001;-80
2021/04/11 04:08:18;;;;;;;6.17;2.00;;;;;;;;;;6202410;23;20159;-80
2021/04/11 04:10:53;;;;;;;9.50;1.43;;;;;;;;;;6200980;23;20004;-79
2021/04/11 04:13:27;;;;;;;5.70;1.20;;;;;;;;;;6199889;23;20009;-78
2021/04/11 04:16:11;;;;;;;8.13;1.58;;;;;;;;;;6227887;23;20004;-80
2021/04/11 04:18:52;;;;;;;6.80;1.33;;;;;;;;;;6199664;23;20001;-80
2021/04/11 04:21:21;;;;;;;4.27;1.20;;;;;;;;;;6197078;23;20038;-80
2021/04/11 04:24:01;;;;;;;6.03;1.53;;;;;;;;;;6194567;23;20012;-78
2021/04/11 04:26:31;;;;;;;4.70;1.30;;;;;;;;;;6194573;23;20449;-79
2021/04/11 04:29:02;;;;;;;3.77;1.10;;;;;;;;;;6218302;23;20067;-78
2021/04/11 04:31:31;;;;;;;3.77;0.90;;;;;;;;;;6218418;23;20015;-79
2021/04/11 04:34:06;;;;;;;2.60;1.00;;;;;;;;;;6193206;23;20055;-78
2021/04/11 04:36:47;;;;;;;5.13;1.13;;;;;;;;;;6194869;23;20012;-79
2021/04/11 04:39:21;;;;;;;4.10;0.93;;;;;;;;;;6193618;23;20005;-78
2021/04/11 04:41:51;;;;;;;7.85;1.20;;;;;;;;;;6194739;23;20009;-79
2021/04/11 04:44:20;;;;;;;3.83;1.03;;;;;;;;;;6190140;23;20037;-78
2021/04/11 04:46:49;;;;;;;8.00;1.17;;;;;;;;;;6189782;23;20004;-79
2021/04/11 04:49:24;;;;;;;4.57;1.23;;;;;;;;;;6189585;23;20012;-79
2021/04/11 04:51:55;;;;;;;6.53;1.30;;;;;;;;;;6189670;23;20005;-79
2021/04/11 04:54:24;;;;;;;4.43;1.23;;;;;;;;;;6191113;23;20005;-78
2021/04/11 04:57:13;;;;;;;6.03;1.23;;;;;;;;;;6192211;23;20019;-79
2021/04/11 04:59:47;;;;;;;4.97;1.30;;;;;;;;;;6185846;23;20016;-79
2021/04/11 05:02:14;;;;;;;3.83;0.90;;;;;;;;;;6221232;23;20005;-78
2021/04/11 05:04:48;;;;;;;3.43;1.20;;;;;;;;;;6190197;23;20095;-78
2021/04/11 05:07:16;;;;;;;2.40;0.88;;;;;;;;;;6190386;23;20016;-79
2021/04/11 05:09:48;;;;;;;5.93;1.03;;;;;;;;;;6189384;23;20009;-79
2021/04/11 05:12:33;;;;;;;4.40;1.07;;;;;;;;;;6189352;23;20015;-79
2021/04/11 05:15:01;;;;;;;5.28;0.70;;;;;;;;;;6189713;23;20011;-79
2021/04/11 05:17:32;;;;;;;4.53;1.20;;;;;;;;;;6216401;23;20027;-79
2021/04/11 05:20:06;;;;;;;4.83;0.90;;;;;;;;;;6190676;23;20021;-79
2021/04/11 05:22:35;;;;;;;5.13;0.93;;;;;;;;;;6191483;23;20095;-78
2021/04/11 05:25:07;;;;;;;3.63;0.97;;;;;;;;;;6191327;23;20015;-79
2021/04/11 05:27:45;;;;;;;3.53;0.80;;;;;;;;;;6193293;23;20008;-78
2021/04/11 05:30:14;;;;;;;4.80;0.80;;;;;;;;;;6195603;23;20039;-78
2021/04/11 05:32:40;;;;;;;2.53;0.70;;;;;;;;;;6220835;23;20046;-78
2021/04/11 05:35:06;;;;;;;5.97;1.00;;;;;;;;;;6195110;23;20364;-77
2021/04/11 05:37:32;;;;;;;4.97;0.80;;;;;;;;;;6171038;23;20012;-78
2021/04/11 05:40:13;;;;;;;4.70;0.97;;;;;;;;;;6193362;23;20016;-78
2021/04/11 05:42:46;;;;;;;3.40;0.70;;;;;;;;;;6193102;23;20008;-79
2021/04/11 05:45:18;;;;;;;4.57;1.23;;;;;;;;;;6221491;23;20003;-79
2021/04/11 05:47:52;;;;;;;2.87;1.00;;;;;;;;;;6222394;23;20001;-79
2021/04/11 05:50:22;;;;;;;5.45;1.10;;;;;;;;;;6195090;23;20035;-79
2021/04/11 05:53:00;;;;;;;6.53;1.30;;;;;;;;;;6194923;23;20095;-78
2021/04/11 05:55:28;;;;;;;5.30;1.40;;;;;;;;;;6220764;23;20050;-79
2021/04/11 05:57:56;;;;;;;9.23;1.30;;;;;;;;;;6195488;23;20005;-78
2021/04/11 06:00:25;;;;;;;5.50;0.90;;;;;;;;;;6195508;23;20020;-78
2021/04/11 06:02:57;;;;;;;5.80;1.50;;;;;;;;;;6196632;23;20013;-78
2021/04/11 06:05:32;;;;;;;3.60;0.77;;;;;;;;;;6196706;23;20004;-78
2021/04/11 06:07:58;;;;;;;;;;;;;;;;;;6198209;23;20012;-78
2021/04/11 06:10:27;;;;;;;2.70;0.67;;;;;;;;;;6223083;23;19900;-78
2021/04/11 06:12:53;;;;;;;5.03;0.67;;;;;;;;;;6198221;23;20004;-78
2021/04/11 06:15:30;;;;;;;4.67;0.80;;;;;;;;;;6224516;23;20054;-79
2021/04/11 06:17:57;;;;;;;7.73;1.40;;;;;;;;;;6217249;23;20008;-78
2021/04/11 06:20:24;;;;;;;3.57;1.03;;;;;;;;;;6190109;23;20020;-78
2021/04/11 06:22:59;;;;;;;5.27;1.00;;;;;;;;;;6190047;23;20001;-80
2021/04/11 06:25:31;;;;;;;4.33;1.00;;;;;;;;;;6190774;23;20380;-78
2021/04/11 06:28:16;;;;;;;6.67;1.30;;;;;;;;;;6191204;23;20004;-78
2021/04/11 06:30:45;;;;;;;4.72;1.10;;;;;;;;;;6191414;23;20064;-79
2021/04/11 06:33:16;;;;;;;11.27;1.63;;;;;;;;;;6186188;23;20028;-78
2021/04/11 06:35:45;;;;;;;6.23;1.27;;;;;;;;;;6185004;23;20009;-78
2021/04/11 06:38:13;;;;;;;7.13;1.30;;;;;;;;;;6185117;23;20005;-79
2021/04/11 06:40:46;;;;;;;10.03;1.23;;;;;;;;;;6184875;23;20013;-78
2021/04/11 06:43:30;;;;;;;6.70;1.43;;;;;;;;;;6183927;23;20295;-78
2021/04/11 06:46:01;;;;;;;8.75;1.45;;;;;;;;;;6185207;23;20012;-79
2021/04/11 06:48:45;;;;;;;10.43;1.50;;;;;;;;;;6183845;23;20017;-78
2021/04/11 06:51:22;;;;;;;7.55;1.52;;;;;;;;;;6185695;23;20007;-79
2021/04/11 06:53:54;;;;;;;6.17;1.30;;;;;;;;;;6182467;23;20017;-79
2021/04/11 06:56:37;;;;;;;6.70;1.30;;;;;;;;;;6181128;23;20371;-78
2021/04/11 06:59:06;;;;;;;5.33;1.03;;;;;;;;;;6184954;23;20010;-79
2021/04/11 07:01:51;;;;;;;5.43;1.13;;;;;;;;;;6215092;22;20015;-79
2021/04/11 07:04:29;;;;;;;9.73;1.42;;;;;;;;;;6198635;22;20039;-78
2021/04/11 07:07:01;;;;;;;7.83;1.50;;;;;;;;;;6190149;23;20095;-78
2021/04/11 07:09:43;;;;;;;7.27;1.40;;;;;;;;;;6218520;23;20011;-77
2021/04/11 07:12:24;;;;;;;5.00;1.33;;;;;;;;;;6193370;23;20011;-78
2021/04/11 07:15:09;;;;;;;9.30;1.73;;;;;;;;;;6192730;23;20066;-78
2021/04/11 07:17:35;;;;;;;7.40;1.63;;;;;;;;;;6218132;23;20046;-78
2021/04/11 07:20:13;;;;;;;9.33;1.87;;;;;;;;;;6191078;23;20020;-77
2021/04/11 07:22:45;;;;;;;8.97;2.13;;;;;;;;;;6191882;23;20069;-78
2021/04/11 07:25:30;;;;;;;4.13;1.30;;;;;;;;;;6217328;23;20034;-77
2021/04/11 07:28:09;;;;;;;9.50;1.98;;;;;;;;;;6191993;23;20009;-77
2021/04/11 07:30:51;;;;;;;8.57;2.30;;;;;;;;;;6193830;23;20009;-78
2021/04/11 07:33:32;;;;;;;7.10;2.07;;;;;;;;;;6187644;23;20437;-79
2021/04/11 07:36:12;;;;;;;10.00;2.03;;;;;;;;;;6187015;23;20011;-78
2021/04/11 07:38:50;;;;;;;4.73;1.33;;;;;;;;;;6214397;23;20080;-77
2021/04/11 07:41:26;;;;;;;9.70;1.57;;;;;;;;;;6186490;23;20414;-79
2021/04/11 07:44:10;;;;;;;6.23;1.40;;;;;;;;;;6213551;23;20001;-77
2021/04/11 07:46:51;;;;;;;2.85;1.15;;;;;;;;;;6187514;23;20426;-80
2021/04/11 07:49:17;;;;;;;6.00;1.00;;;;;;;;;;6215826;23;20001;-76
2021/04/11 07:51:43;;;;;;;7.83;1.50;;;;;;;;;;6193788;23;20009;-78
2021/04/11 07:54:28;;;;;;;3.70;1.10;;;;;;;;;;6220679;23;20001;-77
2021/04/11 07:56:57;;;;;;;4.70;0.80;;;;;;;;;;6192746;23;20083;-78
2021/04/11 07:59:42;;;;;;;5.63;1.50;;;;;;;;;;6217929;23;20008;-77
2021/04/11 08:02:14;;;;;;;7.72;1.17;;;;;;;;;;6216496;23;20092;-77
2021/04/11 08:04:40;;;;;;;8.03;2.00;;;;;;;;;;6189842;23;20021;-79
2021/04/11 08:07:15;;;;;;;3.27;0.90;;;;;;;;;;6193288;23;20004;-79
2021/04/11 08:09:48;;;;;;;2.13;0.43;;;;;;;;;;6192532;23;20013;-79
2021/04/11 08:12:39;;;;;;;3.33;0.60;;;;;;;;;;6188695;23;20009;-78
2021/04/11 08:15:05;;;;;;;6.90;0.60;;;;;;;;;;6214113;23;20055;-78
2021/04/11 08:17:37;;;;;;;5.43;0.73;;;;;;;;;;6213724;23;20008;-78
2021/04/11 08:20:06;;;;;;;3.23;0.50;;;;;;;;;;6188090;23;20012;-79
2021/04/11 08:22:39;;;;;;;6.40;1.00;;;;;;;;;;6188716;23;20004;-78
2021/04/11 08:25:23;;;;;;;3.80;0.90;;;;;;;;;;6215225;23;20001;-79
2021/04/11 08:27:59;;;;;;;0.32;0.30;;;;;;;;;;6217375;23;20076;-79
2021/04/11 08:30:45;;;;;;;4.33;0.77;;;;;;;;;;6188668;23;20103;-79
2021/04/11 08:33:14;;;;;;;5.93;0.97;;;;;;;;;;6189618;23;20040;-78
2021/04/11 08:35:47;;;;;;;7.27;0.70;;;;;;;;;;6189285;23;20091;-79
2021/04/11 08:38:25;;;;;;;3.43;0.50;;;;;;;;;;6189545;23;20005;-79
2021/04/11 08:40:59;;;;;;;6.37;0.80;;;;;;;;;;6189902;23;20314;-78
2021/04/11 08:43:44;;;;;;;10.50;1.00;;;;;;;;;;6193476;23;20015;-78
2021/04/11 08:46:29;;;;;;;2.80;0.75;;;;;;;;;;6197306;23;20009;-78
2021/04/11 08:48:58;;;;;;;7.30;0.98;;;;;;;;;;6191921;23;20009;-79
2021/04/11 08:51:32;;;;;;;3.40;0.70;;;;;;;;;;6192011;23;20008;-80
2021/04/11 08:54:10;;;;;;;5.40;0.63;;;;;;;;;;6192603;23;20012;-78
2021/04/11 08:56:39;;;;;;;3.50;0.60;;;;;;;;;;6190201;23;20008;-82
2021/04/11 08:59:24;;;;;;;5.77;0.90;;;;;;;;;;6191427;23;20024;-79
2021/04/11 09:02:19;;;;;;;4.30;1.33;;;;;;;;;;6190643;23;20012;-77
2021/04/11 09:04:55;;;;;;;6.67;0.40;;;;;;;;;;6194787;23;20016;-78
2021/04/11 09:07:38;;;;;;;2.30;0.43;;;;;;;;;;6188408;23;20156;-79
2021/04/11 09:10:30;;;;;;;3.27;0.63;;;;;;;;;;6218200;23;20001;-80
2021/04/11 09:13:15;;;;;;;6.37;0.80;;;;;;;;;;6191824;23;20005;-80
2021/04/11 09:15:54;;;;;;;7.90;0.85;;;;;;;;;;6192837;23;20000;-79
2021/04/11 09:18:23;;;;;;;7.40;0.97;;;;;;;;;;6195090;23;20028;-80
2021/04/11 09:20:55;;;;;;;1.50;0.47;;;;;;;;;;6192104;23;20121;-78
2021/04/11 09:23:42;;;;;;;2.10;0.50;;;;;;;;;;6190791;23;20091;-80
2021/04/11 09:26:20;;;;;;;7.30;1.03;;;;;;;;;;6191676;23;20020;-79
2021/04/11 09:28:59;;;;;;;6.43;0.67;;;;;;;;;;6193858;23;20016;-80
2021/04/11 09:31:37;;;;;;;6.00;0.80;;;;;;;;;;6188967;23;20028;-79
2021/04/11 09:34:10;;;;;;;6.50;0.80;;;;;;;;;;6187926;23;20455;-77
2021/04/11 09:36:39;;;;;;;2.83;0.50;;;;;;;;;;6191956;23;20009;-79
2021/04/11 09:39:12;;;;;;;1.70;0.50;;;;;;;;;;6194029;23;20005;-83
2021/04/11 09:41:58;;;;;;;5.03;0.70;;;;;;;;;;6226189;23;20076;-77
2021/04/11 09:44:27;;;;;;;3.87;0.60;;;;;;;;;;6172171;23;20005;-79
2021/04/11 09:47:05;;;;;;;1.70;0.50;;;;;;;;;;6188164;23;20008;-78
2021/04/11 09:49:42;;;;;;;2.27;0.30;;;;;;;;;;6188457;23;20031;-78
2021/04/11 09:52:08;;;;;;;6.90;0.60;;;;;;;;;;6190688;23;20013;-78
2021/04/11 09:54:38;;;;;;;1.10;0.30;;;;;;;;;;6218875;23;20056;-78
2021/04/11 09:57:22;;;;;;;6.63;0.60;;;;;;;;;;6193084;23;20005;-78
2021/04/11 10:00:07;;;;;;;2.92;0.73;;;;;;;;;;6193544;23;20017;-79
2021/04/11 10:02:38;;;;;;;5.47;0.60;;;;;;;;;;6219458;23;20070;-79
2021/04/11 10:05:10;;;;;;;5.87;0.70;;;;;;;;;;6189412;23;20008;-78
2021/04/11 10:07:45;;;;;;;1.43;0.40;;;;;;;;;;6189598;23;20005;-78
2021/04/11 10:10:30;;;;;;;7.27;0.70;;;;;;;;;;6192300;23;20013;-78
2021/04/11 10:13:15;;;;;;;2.20;0.50;;;;;;;;;;6194393;23;20031;-80
2021/04/11 10:15:41;;;;;;;;;;;;;;;;;;6196700;23;20009;-78
2021/04/11 10:18:10;;;;;;;1.80;0.50;;;;;;;;;;6197175;23;19951;-79
2021/04/11 10:20:43;;;;;;;7.60;0.70;;;;;;;;;;6195092;23;20013;-79
2021/04/11 10:23:17;;;;;;;1.63;0.60;;;;;;;;;;6195278;23;20009;-77
2021/04/11 10:25:43;;;;;;;;;;;;;;;;;;6195405;23;20013;-77
2021/04/11 10:28:28;;;;;;;3.03;1.17;;;;;;;;;;6195952;23;19904;-78
2021/04/11 10:31:02;;;;;;;3.92;0.75;;;;;;;;;;6190923;23;20051;-78
2021/04/11 10:33:37;;;;;;;1.38;0.40;;;;;;;;;;6215600;23;20017;-78
2021/04/11 10:36:09;;;;;;;8.93;1.00;;;;;;;;;;6188933;23;20008;-78
2021/04/11 10:38:35;;;;;;;4.90;0.80;;;;;;;;;;6193004;23;20005;-77
2021/04/11 10:41:17;;;;;;;5.80;0.90;;;;;;;;;;6190103;23;20101;-77
2021/04/11 10:43:52;;;;;;;6.17;0.90;;;;;;;;;;6215600;23;20001;-78
2021/04/11 10:46:22;;;;;;;11.20;1.00;;;;;;;;;;6214162;23;20005;-78
2021/04/11 10:49:07;;;;;;;13.20;1.50;;;;;;;;;;6186950;23;20012;-78
2021/04/11 10:51:52;;;;;;;7.43;0.88;;;;;;;;;;6186149;23;20084;-79
2021/04/11 10:54:30;;;;;;;3.75;0.70;;;;;;;;;;6186094;23;20326;-78
2021/04/11 10:56:59;;;;;;;4.87;0.47;;;;;;;;;;6186599;23;20032;-78
2021/04/11 10:59:40;;;;;;;7.50;1.40;;;;;;;;;;6186866;23;20013;-79
2021/04/11 11:02:25;;;;;;;5.33;0.90;;;;;;;;;;6187512;23;20024;-78
2021/04/11 11:05:01;;;;;;;7.40;0.70;;;;;;;;;;6186877;23;20088;-79
2021/04/11 11:07:40;;;;;;;7.47;0.77;;;;;;;;;;6191712;23;20009;-77
2021/04/11 11:10:25;;;;;;;2.33;0.47;;;;;;;;;;6191004;23;20017;-78
2021/04/11 11:13:02;;;;;;;5.50;1.20;;;;;;;;;;6192873;23;20009;-77
2021/04/11 11:15:28;;;;;;;5.27;0.60;;;;;;;;;;6197958;23;20160;-78
2021/04/11 11:17:59;;;;;;;5.07;1.00;;;;;;;;;;6222886;23;20065;-78
2021/04/11 11:20:44;;;;;;;3.70;0.80;;;;;;;;;;6194477;23;20016;-78
2021/04/11 11:23:23;;;;;;;2.45;0.57;;;;;;;;;;6194301;23;20005;-79
2021/04/11 11:25:57;;;;;;;3.67;0.70;;;;;;;;;;6196931;23;20027;-78
2021/04/11 11:28:42;;;;;;;2.20;0.50;;;;;;;;;;6189603;23;20058;-77
2021/04/11 11:31:08;;;;;;;7.35;0.77;;;;;;;;;;6187678;23;20009;-78
2021/04/11 11:33:37;;;;;;;6.85;0.77;;;;;;;;;;6187783;23;20396;-77
2021/04/11 11:36:03;;;;;;;4.40;0.40;;;;;;;;;;6214451;23;19997;-77
2021/04/11 11:38:35;;;;;;;4.32;0.50;;;;;;;;;;6187941;23;20434;-77
2021/04/11 11:41:10;;;;;;;5.25;0.95;;;;;;;;;;6187410;23;20013;-78
2021/04/11 11:43:36;;;;;;;;;;;;;;;;;;6188189;23;20039;-78
2021/04/11 11:46:05;;;;;;;3.05;0.70;;;;;;;;;;6187687;23;19900;-77
2021/04/11 11:48:31;;;;;;;4.22;0.90;;;;;;;;;;6187453;23;20004;-79
2021/04/11 11:51:17;;;;;;;3.05;0.40;;;;;;;;;;6213610;23;20053;-77
2021/04/11 11:53:54;;;;;;;3.35;0.70;;;;;;;;;;6153975;23;20037;-78
2021/04/11 11:56:24;;;;;;;6.57;0.55;;;;;;;;;;6188516;23;20012;-78
2021/04/11 11:59:05;;;;;;;4.97;1.02;;;;;;;;;;6188997;23;20005;-80
2021/04/11 12:02:13;;;;;;;3.40;0.45;;;;;;;;;;6187706;23;20035;-78
2021/04/11 12:04:55;;;;;;;5.18;0.52;;;;;;;;;;6094215;23;20014;-78
2021/04/11 12:07:25;;;;;;;4.53;0.52;;;;;;;;;;6093528;23;20067;-77
2021/04/11 12:10:02;;;;;;;5.57;1.15;;;;;;;;;;6154377;23;20009;-77
2021/04/11 12:12:31;;;;;;;3.63;0.73;;;;;;;;;;6187593;23;20009;-76
2021/04/11 12:15:20;;;;;;;3.17;0.60;;;;;;;;;;6213288;23;20371;-76
2021/04/11 12:18:03;;;;;;;2.53;0.30;;;;;;;;;;6187762;23;20008;-78
2021/04/11 12:20:45;;;;;;;4.28;0.70;;;;;;;;;;6187776;23;20017;-77
2021/04/11 12:23:18;;;;;;;3.58;1.02;;;;;;;;;;6189093;23;20009;-78
2021/04/11 12:25:44;;;;;;;3.83;0.70;;;;;;;;;;6189468;23;20009;-78
2021/04/11 12:28:23;;;;;;;2.92;0.50;;;;;;;;;;6216020;23;20028;-78
2021/04/11 12:30:49;;;;;;;3.90;0.57;;;;;;;;;;6218895;23;20015;-78
2021/04/11 12:33:30;;;;;;;5.40;0.85;;;;;;;;;;6166635;23;20025;-77
2021/04/11 12:36:05;;;;;;;3.83;0.65;;;;;;;;;;6189256;23;20012;-77
2021/04/11 12:38:46;;;;;;;2.67;0.52;;;;;;;;;;6216176;23;20001;-77
2021/04/11 12:41:12;;;;;;;2.85;0.60;;;;;;;;;;6187927;23;20020;-78
2021/04/11 12:43:57;;;;;;;4.10;0.90;;;;;;;;;;6215114;23;20005;-79
2021/04/11 12:46:43;;;;;;;2.97;0.65;;;;;;;;;;6190032;23;20012;-77
2021/04/11 12:49:42;;;;;;;5.75;0.82;;;;;;;;;;6189823;23;20005;-78
2021/04/11 12:52:29;;;;;;;6.15;0.60;;;;;;;;;;6188570;23;20009;-79
2021/04/11 12:55:07;;;;;;;3.88;1.13;;;;;;;;;;6172712;23;20043;-78
2021/04/11 12:57:45;;;;;;;5.47;1.10;;;;;;;;;;6216519;23;19996;-78
2021/04/11 13:00:14;;;;;;;4.13;0.73;;;;;;;;;;6189887;23;20082;-78
2021/04/11 13:02:53;;;;;;;6.45;0.45;;;;;;;;;;6190664;22;20016;-78
2021/04/11 13:05:39;;;;;;;4.38;0.63;;;;;;;;;;6191381;23;20012;-78
2021/04/11 13:08:18;;;;;;;5.20;0.70;;;;;;;;;;6195370;23;20005;-77
2021/04/11 13:11:00;;;;;;;1.60;0.40;;;;;;;;;;6195451;22;20065;-78
2021/04/11 13:13:41;;;;;;;5.15;0.80;;;;;;;;;;6220277;23;20068;-78
2021/04/11 13:16:16;;;;;;;5.75;0.73;;;;;;;;;;6192536;23;20062;-77
2021/04/11 13:18:49;;;;;;;3.58;0.68;;;;;;;;;;6218723;23;20000;-78
2021/04/11 13:21:33;;;;;;;2.03;0.57;;;;;;;;;;6217569;23;20009;-78
2021/04/11 13:24:06;;;;;;;5.95;0.85;;;;;;;;;;6189192;23;20028;-77
2021/04/11 13:26:41;;;;;;;5.63;0.63;;;;;;;;;;6190590;23;20005;-78
2021/04/11 13:29:10;;;;;;;6.45;0.63;;;;;;;;;;6192280;23;20054;-79
2021/04/11 13:31:49;;;;;;;6.88;0.95;;;;;;;;;;6194292;23;20062;-79
2021/04/11 13:39:41;;;;;;;4.28;0.50;;;;;;;;;;5088893;27;1509528;-75
2021/04/11 13:42:43;;;;;;;2.13;0.50;;;;;;;;;;5119119;28;20027;-74
2021/04/11 13:45:19;;;;;;;1.55;0.50;;;;;;;;;;5054603;28;20587;-74
2021/04/11 13:47:58;;;;;;;2.60;0.57;;;;;;;;;;5111047;28;20032;-73
2021/04/11 13:50:24;;;;;;;3.30;0.52;;;;;;;;;;5134194;28;20031;-74
2021/04/11 13:53:02;;;;;;;4.53;0.50;;;;;;;;;;5119055;28;20099;-76
2021/04/11 13:55:43;;;;;;;1.80;0.55;;;;;;;;;;5119173;28;20054;-74
2021/04/11 13:58:25;;;;;;;0.88;0.40;;;;;;;;;;5114953;28;20023;-73
2021/04/11 14:01:03;;;;;;;2.75;0.50;;;;;;;;;;5114316;28;20024;-73
2021/04/11 14:03:32;;;;;;;3.72;0.50;;;;;;;;;;5121840;28;20411;-76
2021/04/11 14:06:02;;;;;;;4.25;0.40;;;;;;;;;;5123252;28;20462;-76
2021/04/11 14:08:34;;;;;;;2.95;0.50;;;;;;;;;;5142513;28;20442;-77
2021/04/11 14:11:07;;;;;;;2.58;0.80;;;;;;;;;;5118640;28;20470;-76
2021/04/11 14:13:36;;;;;;;3.42;0.50;;;;;;;;;;5135603;28;20032;-78
2021/04/11 14:16:06;;;;;;;2.88;0.50;;;;;;;;;;5127569;28;20047;-78
2021/04/11 14:18:51;;;;;;;2.70;0.63;;;;;;;;;;5121707;28;20031;-75
2021/04/11 14:21:26;;;;;;;1.73;0.60;;;;;;;;;;5121646;28;20427;-75
2021/04/11 14:24:12;;;;;;;3.80;0.60;;;;;;;;;;5121148;28;20033;-75
2021/04/11 14:26:52;;;;;;;2.03;0.50;;;;;;;;;;5118427;28;20028;-73
2021/04/11 14:29:21;;;;;;;3.05;0.52;;;;;;;;;;5115024;28;20059;-73
2021/04/11 14:32:10;;;;;;;1.35;0.50;;;;;;;;;;5132490;28;20023;-73
2021/04/11 14:34:43;;;;;;;1.55;0.75;;;;;;;;;;5122365;28;20035;-73
2021/04/11 14:37:09;;;;;;;3.95;0.40;;;;;;;;;;5114596;28;20019;-74
2021/04/11 14:39:38;;;;;;;2.08;0.60;;;;;;;;;;5137215;27;20111;-77
2021/04/11 14:42:12;;;;;;;1.13;0.35;;;;;;;;;;5139690;28;20024;-77
2021/04/11 14:44:44;;;;;;;2.03;0.38;;;;;;;;;;5122203;28;20118;-78
2021/04/11 14:47:17;;;;;;;1.52;0.40;;;;;;;;;;5139669;28;20015;-77
2021/04/11 14:49:43;;;;;;;1.65;0.40;;;;;;;;;;5134416;28;20027;-77
2021/04/11 14:52:09;;;;;;;2.85;0.50;;;;;;;;;;5090854;28;20115;-78
2021/04/11 14:54:43;;;;;;;2.70;0.40;;;;;;;;;;5127152;28;20423;-77
2021/04/11 14:57:27;;;;;;;3.03;0.45;;;;;;;;;;5109321;28;20382;-78
2021/04/11 14:59:59;;;;;;;5.07;0.50;;;;;;;;;;5112548;28;20067;-78
2021/04/11 15:02:25;;;;;;;2.10;0.50;;;;;;;;;;5109307;28;20035;-78
2021/04/11 15:04:58;;;;;;;3.08;0.47;;;;;;;;;;5107205;28;20015;-78
2021/04/11 15:07:30;;;;;;;1.25;0.40;;;;;;;;;;5107953;28;20023;-78
2021/04/11 15:10:17;;;;;;;1.25;0.40;;;;;;;;;;5125718;28;20028;-78
2021/04/11 15:12:52;;;;;;;5.45;0.65;;;;;;;;;;5106104;28;20064;-76
2021/04/11 15:15:28;;;;;;;2.78;0.60;;;;;;;;;;5104880;28;20084;-77
2021/04/11 15:18:14;;;;;;;5.32;0.60;;;;;;;;;;5105754;28;20094;-78
2021/04/11 15:20:43;;;;;;;3.90;0.60;;;;;;;;;;5106056;28;20031;-73
2021/04/11 15:23:30;;;;;;;2.35;0.50;;;;;;;;;;5121280;28;20038;-77
2021/04/11 15:26:23;;;;;;;1.45;0.40;;;;;;;;;;5100231;28;20028;-74